METAR AND TAF INFORMATION
METAR FOR LGMK
ADDS - METARS form results

(1809 UTC 21 July 2019)
Data provider http://aviationweather.gov/metar/data/
 
METAR text: LGMK 211750Z 35018G29KT CAVOK 25/15 Q1013
Conditions at: LGMK (MIKONOS ISLAND , GR) observed 1750 UTC 21 July 2019
Temperature: 25.0°C (77°F)
Dewpoint: 15.0°C (59°F) [RH = 54%]
Pressure (altimeter): 29.91 inches Hg (1013.0 mb)
Winds: from the N (350 degrees) at 21 MPH (18 knots; 9.3 m/s)
gusting to 33 MPH (29 knots; 14.9 m/s)
Visibility: 6 or more miles (10+ km)
Ceiling: ceiling and visibility are OK
Clouds: unknown
Weather: no significant weather observed at this time

METAR text: LGMK 211720Z 35020KT CAVOK 26/16 Q1013
Conditions at: LGMK (MIKONOS ISLAND , GR) observed 1720 UTC 21 July 2019
Temperature: 26.0°C (79°F)
Dewpoint: 16.0°C (61°F) [RH = 54%]
Pressure (altimeter): 29.91 inches Hg (1013.0 mb)
Winds: from the N (350 degrees) at 23 MPH (20 knots; 10.3 m/s)
Visibility: 6 or more miles (10+ km)
Ceiling: ceiling and visibility are OK
Clouds: unknown
Weather: no significant weather observed at this time

Forecast for: LGMK (MIKONOS ISLAND , GR)
Text: TAF LGMK 211700Z 2118/2203 35025G35KT 9000 FEW010
Forecast period: 1800 UTC 21 July 2019 to 0300 UTC 22 July 2019
Forecast type: FROM: standard forecast or significant change
Winds: from the N (350 degrees) at 29 MPH (25 knots; 12.9 m/s)
gusting to 40 MPH (35 knots; 18.0 m/s)
Visibility: 6 miles (9 km)
Ceiling: at least 12,000 feet AGL
Clouds: few clouds at 1000 feet AGL
Weather: no significant weather forecast for this period

 ΧΑΡΤΗΣ ΑΕΡΟΔΡΟΜΙΟΥ

 RUNWAY INFORMATION
Διάδρομος 16 Runway length 6244 ft Runway width 98 ft
Runway elevation 395 ft Runway displaced threshold 0 ft Runway heading 160
Διάδρομος 34 Runway length 6244 ft Runway width 98 ft
Runway elevation 388 ft Runway displaced threshold 0 ft Runway heading 340

 ΣΥΧΝΟΤΗΤΕΣ ΑΕΡΟΔΡΟΜΙΟΥ
Τύπος A/G Όνομα RDO Συχνότητα 563.7 MHZ
Τύπος APP Όνομα APP Συχνότητα 118.75 MHZ
Τύπος TWR Όνομα TWR Συχνότητα 118.75 MHZ

 AIRPORT NEAR NAVIGATION AIDS
Τύπος VOR-DME Όνομα Mikonos Συχνότητα 110000 KHZ
Τύπος NDB Όνομα Mikonos Συχνότητα 401 KHZ



Hellenic Air Force Virtual - All rights reserved 2019 - Powered by VAM